createdAt,value
2018-08-16T02:57:22.000Z,0
2018-08-16T05:27:59.476Z,145
2018-08-16T05:29:06.889Z,155
2018-08-16T05:29:55.621Z,155
2018-08-16T05:30:36.089Z,160
2018-08-16T05:31:16.498Z,160
2018-08-16T05:31:56.930Z,165
2018-08-16T05:32:37.306Z,175
2018-08-16T05:33:17.662Z,180
2018-08-16T05:33:58.149Z,180
2018-08-16T05:34:38.551Z,190
2018-08-16T05:35:18.877Z,195
2018-08-16T05:35:59.344Z,200
2018-08-16T05:36:39.678Z,205
2018-08-16T05:37:20.179Z,215
2018-08-16T05:38:00.561Z,220
2018-08-16T05:38:40.980Z,225
2018-08-16T05:39:21.368Z,235
2018-08-16T05:40:01.777Z,250
2018-08-16T05:40:42.215Z,325
2018-08-16T05:41:22.617Z,445
2018-08-16T05:42:02.961Z,560
2018-08-16T05:42:43.408Z,660
2018-08-16T05:43:23.913Z,680
2018-08-16T05:44:04.244Z,635
2018-08-16T05:44:44.691Z,575
2018-08-16T05:45:25.108Z,515
2018-08-16T05:46:05.556Z,515
2018-08-16T05:46:46.019Z,525
2018-08-16T05:47:26.471Z,525
2018-08-16T05:48:07.203Z,530
2018-08-16T05:48:47.665Z,550
2018-08-16T05:49:28.128Z,565
2018-08-16T05:50:08.549Z,565
2018-08-16T05:50:49.076Z,560
2018-08-16T05:51:29.374Z,550
2018-08-16T05:52:09.816Z,550
2018-08-16T05:52:50.327Z,570
2018-08-16T05:53:31.114Z,575
2018-08-16T05:54:11.653Z,580
2018-08-16T05:54:52.562Z,575
2018-08-16T05:55:33.373Z,575
2018-08-16T05:56:13.563Z,595
2018-08-16T05:56:53.975Z,620
2018-08-16T05:57:34.387Z,650
2018-08-16T05:58:14.772Z,655
2018-08-16T05:58:55.197Z,660
2018-08-16T05:59:35.646Z,650
2018-08-16T06:00:16.121Z,645
2018-08-16T06:00:56.632Z,665
2018-08-16T06:01:37.016Z,670
2018-08-16T06:02:17.403Z,670
2018-08-16T06:02:57.795Z,680
2018-08-16T06:03:38.244Z,705
2018-08-16T06:04:18.901Z,715
2018-08-16T06:04:59.371Z,715
2018-08-16T06:05:39.775Z,705
2018-08-16T06:06:20.139Z,700
2018-08-16T06:07:00.583Z,715
2018-08-16T06:07:41.162Z,710
2018-08-16T06:08:21.568Z,700
2018-08-16T06:09:16.920Z,710
2018-08-16T06:09:57.247Z,705
2018-08-16T06:10:37.762Z,705
2018-08-16T06:11:18.158Z,715
2018-08-16T06:11:58.627Z,710
2018-08-16T06:12:39.000Z,695
2018-08-16T06:13:20.450Z,695
2018-08-16T06:14:00.130Z,695
2018-08-16T06:14:40.512Z,720
2018-08-16T06:15:20.974Z,745
2018-08-16T06:16:01.348Z,770
2018-08-16T06:16:41.887Z,780
2018-08-16T06:17:22.259Z,795
2018-08-16T06:18:02.739Z,780
2018-08-16T06:18:43.141Z,760
2018-08-16T06:19:23.732Z,745
2018-08-16T06:20:10.750Z,760
2018-08-16T06:30:02.495Z,870
2018-08-16T06:31:11.738Z,910
2018-08-16T06:32:20.632Z,910
2018-08-16T06:33:33.670Z,915
2018-08-16T06:34:50.876Z,965
2018-08-16T06:36:00.157Z,985
2018-08-16T06:37:13.458Z,965
2018-08-16T06:38:26.895Z,950
2018-08-16T06:39:40.457Z,1000
2018-08-16T06:40:57.679Z,1025
2018-08-16T06:42:07.099Z,1035
2018-08-16T06:43:17.740Z,1050
2018-08-16T06:44:27.179Z,1090
2018-08-16T06:45:11.400Z,1095
2018-08-16T06:45:51.808Z,1100
2018-08-16T06:46:32.148Z,1105
2018-08-16T06:47:12.676Z,1105
2018-08-16T06:47:53.073Z,1115
2018-08-16T06:48:33.526Z,1115
2018-08-16T06:49:14.041Z,1115
2018-08-16T06:49:54.342Z,1120
2018-08-16T06:50:35.179Z,1140
2018-08-16T06:51:15.509Z,1170
2018-08-16T06:51:55.905Z,1040
2018-08-16T06:52:36.401Z,790
2018-08-16T06:53:16.857Z,560
2018-08-16T06:53:57.396Z,510
2018-08-16T06:54:37.623Z,495
2018-08-16T06:55:18.143Z,485
2018-08-16T06:55:58.651Z,480
2018-08-16T06:56:39.037Z,480
2018-08-16T06:57:19.508Z,485
2018-08-16T06:57:59.927Z,490
2018-08-16T06:58:40.382Z,485
2018-08-16T06:59:20.759Z,485
2018-08-16T07:00:01.658Z,475
2018-08-16T07:00:42.162Z,475
2018-08-16T07:01:22.487Z,475
2018-08-16T07:02:02.956Z,480
2018-08-16T07:02:43.440Z,485
2018-08-16T07:03:23.909Z,495
2018-08-16T07:04:04.352Z,505
2018-08-16T07:04:44.831Z,520
2018-08-16T07:05:25.274Z,525
2018-08-16T07:06:05.675Z,525
2018-08-16T07:06:46.086Z,535
2018-08-16T07:07:26.414Z,525
2018-08-16T07:08:06.822Z,520
2018-08-16T07:08:47.318Z,520
2018-08-16T07:09:27.786Z,520
2018-08-16T07:10:08.143Z,505
2018-08-16T07:10:48.597Z,500
2018-08-16T07:11:29.081Z,495
2018-08-16T07:12:09.662Z,485
2018-08-16T07:12:49.858Z,480
2018-08-16T07:13:30.322Z,470
2018-08-16T07:14:10.728Z,470
2018-08-16T07:14:51.152Z,475
2018-08-16T07:15:31.700Z,435
2018-08-16T07:16:12.017Z,470
2018-08-16T07:16:52.576Z,480
2018-08-16T07:17:32.990Z,485
2018-08-16T07:18:13.560Z,480
2018-08-16T07:18:54.080Z,480
2018-08-16T07:19:34.659Z,480
2018-08-16T07:20:15.246Z,480
2018-08-16T07:20:55.707Z,480
2018-08-16T07:21:37.177Z,475
2018-08-16T07:22:17.252Z,470
2018-08-16T07:22:58.070Z,470
2018-08-16T07:23:38.949Z,470
2018-08-16T07:24:19.736Z,470
2018-08-16T07:25:01.133Z,460
2018-08-16T07:25:41.654Z,445
2018-08-16T07:26:22.497Z,435
2018-08-16T07:27:03.201Z,425
2018-08-16T07:27:43.874Z,410
2018-08-16T07:28:25.416Z,395
2018-08-16T07:29:06.173Z,380
2018-08-16T07:29:47.282Z,350
2018-08-16T07:30:28.638Z,325
2018-08-16T07:31:09.515Z,305
2018-08-16T07:31:50.583Z,300
2018-08-16T07:32:31.300Z,285
2018-08-16T07:33:11.970Z,275
2018-08-16T07:33:53.004Z,265
2018-08-16T07:34:33.899Z,260
2018-08-16T07:35:14.863Z,255
2018-08-16T07:35:55.953Z,245
2018-08-16T07:36:37.352Z,240
2018-08-16T07:37:17.508Z,235
2018-08-16T07:37:58.361Z,225
2018-08-16T07:38:39.165Z,220
2018-08-16T07:39:22.173Z,210
2018-08-16T07:40:04.127Z,200
2018-08-16T07:40:44.503Z,200
2018-08-16T07:41:25.150Z,195
2018-08-16T07:42:05.980Z,190
2018-08-16T07:42:46.493Z,185
2018-08-16T07:43:27.664Z,185
2018-08-16T07:44:07.857Z,180
2018-08-16T07:44:48.812Z,175
2018-08-16T07:45:30.563Z,170
2018-08-16T07:46:11.366Z,170
2018-08-16T07:46:52.460Z,170
2018-08-16T07:47:34.188Z,155
2018-08-16T07:48:15.015Z,155
2018-08-16T07:48:56.679Z,155
2018-08-16T07:49:36.842Z,150
2018-08-16T07:50:17.414Z,145
2018-08-16T07:50:58.117Z,140
2018-08-16T07:51:39.952Z,135
2018-08-16T07:52:20.013Z,125
2018-08-16T07:58:21.918Z,135
2018-08-16T07:59:44.627Z,135
2018-08-16T08:05:53.197Z,130
2018-08-16T08:07:08.938Z,130
2018-08-16T08:08:36.875Z,130
2018-08-16T08:10:05.134Z,125
2018-08-16T08:11:16.134Z,90
2018-08-16T08:12:27.139Z,125
2018-08-16T08:13:26.274Z,125
2018-08-16T08:14:07.369Z,125
2018-08-16T08:14:47.357Z,120
2018-08-16T08:15:27.879Z,120
2018-08-16T08:16:08.385Z,120
2018-08-16T08:16:49.194Z,120
2018-08-16T08:17:29.839Z,120
2018-08-16T08:18:10.264Z,110
2018-08-16T08:18:50.703Z,120
2018-08-16T08:19:31.842Z,120
2018-08-16T08:20:31.145Z,115
2018-08-16T08:21:26.452Z,115
2018-08-16T08:27:34.571Z,120
2018-08-16T08:28:44.621Z,125
2018-08-16T08:30:06.437Z,120
2018-08-16T08:35:51.056Z,105
2018-08-16T08:37:31.921Z,105
2018-08-16T08:44:55.137Z,110
2018-08-16T08:48:57.540Z,105
2018-08-16T08:49:39.114Z,100
2018-08-16T08:50:19.001Z,100
2018-08-16T08:50:59.452Z,105
2018-08-16T08:51:40.982Z,105
2018-08-16T08:52:20.550Z,105
2018-08-16T08:53:01.311Z,110
2018-08-16T08:54:26.067Z,105
2018-08-16T08:55:07.280Z,110
2018-08-16T08:55:47.673Z,105
2018-08-16T08:56:34.701Z,105
2018-08-16T08:57:15.611Z,90
2018-08-16T08:57:56.538Z,95
2018-08-16T08:58:37.670Z,95
2018-08-16T08:59:18.227Z,95
2018-08-16T08:59:58.855Z,95
2018-08-16T09:00:40.449Z,100
2018-08-16T09:01:21.483Z,100
2018-08-16T09:02:05.349Z,100
2018-08-16T09:02:48.117Z,100
2018-08-16T09:03:28.968Z,100
2018-08-16T09:04:10.297Z,100
2018-08-16T09:04:50.818Z,100
2018-08-16T09:05:32.259Z,100
2018-08-16T09:06:13.345Z,100
2018-08-16T09:06:56.264Z,100
2018-08-16T09:07:36.808Z,100
2018-08-16T09:08:17.487Z,100
2018-08-16T09:08:58.677Z,100
2018-08-16T09:09:39.646Z,100
2018-08-16T09:10:20.220Z,100
2018-08-16T09:11:01.193Z,100
2018-08-16T09:11:43.843Z,95
2018-08-16T09:12:24.607Z,95
2018-08-16T09:13:05.760Z,95
2018-08-16T09:13:46.026Z,95
2018-08-16T09:14:27.377Z,95
2018-08-16T09:15:08.764Z,95
2018-08-16T09:15:49.257Z,95
2018-08-16T09:16:30.077Z,85
2018-08-16T09:17:10.983Z,70
2018-08-16T09:17:53.306Z,80
2018-08-16T09:18:33.222Z,90
2018-08-16T09:19:14.229Z,95
2018-08-16T09:20:00.264Z,90
2018-08-16T09:21:52.254Z,75
2018-08-16T09:22:34.377Z,90
2018-08-16T09:23:14.358Z,85
2018-08-16T09:23:55.745Z,80
2018-08-16T09:24:35.981Z,80
2018-08-16T09:25:17.155Z,85
2018-08-16T09:25:58.286Z,85
2018-08-16T09:26:38.516Z,90
2018-08-16T09:27:20.049Z,90
2018-08-16T09:28:00.726Z,85
2018-08-16T09:28:42.799Z,85
2018-08-16T09:41:06.496Z,85
2018-08-16T09:41:47.885Z,85
2018-08-16T09:42:29.793Z,85
2018-08-16T09:43:11.557Z,85
2018-08-16T09:43:52.378Z,85
2018-08-16T09:52:38.133Z,60
2018-08-16T09:54:19.942Z,80
2018-08-16T09:55:51.919Z,85
2018-08-16T09:56:57.658Z,85
2018-08-16T09:57:38.191Z,65
2018-08-16T09:58:18.728Z,60
2018-08-16T09:58:59.068Z,70
2018-08-16T09:59:39.776Z,70
2018-08-16T10:00:20.364Z,75
2018-08-16T10:01:02.023Z,70
2018-08-16T10:01:41.641Z,80
2018-08-16T10:02:22.695Z,80
2018-08-16T10:03:03.414Z,80
2018-08-16T10:03:44.022Z,80
2018-08-16T10:04:24.282Z,80
2018-08-16T10:05:04.770Z,80
2018-08-16T10:05:45.372Z,80
2018-08-16T10:06:27.309Z,80
2018-08-16T10:07:07.740Z,80
2018-08-16T10:07:48.321Z,75
2018-08-16T10:08:28.911Z,75
2018-08-16T10:09:09.535Z,75
2018-08-16T10:09:49.980Z,80
2018-08-16T10:10:30.883Z,80
2018-08-16T10:11:11.638Z,80
2018-08-16T10:11:52.589Z,80
2018-08-16T10:12:33.382Z,75
2018-08-16T10:13:14.227Z,70
2018-08-16T10:13:55.275Z,75
2018-08-16T10:14:35.953Z,75
2018-08-16T10:15:16.815Z,75
2018-08-16T10:15:57.252Z,75
2018-08-16T10:16:37.704Z,75
2018-08-16T10:17:18.164Z,75
2018-08-16T10:17:58.548Z,75
2018-08-16T10:18:39.088Z,75
2018-08-16T10:19:19.393Z,75
2018-08-16T10:19:59.878Z,75
2018-08-16T10:20:40.557Z,75
2018-08-16T10:21:21.032Z,75
2018-08-16T10:22:01.486Z,70
2018-08-16T10:22:41.913Z,70
2018-08-16T10:23:22.369Z,70
2018-08-16T10:24:02.792Z,70
2018-08-16T10:24:43.204Z,65
2018-08-16T10:25:23.738Z,65
2018-08-16T10:26:04.192Z,60
2018-08-16T10:26:44.524Z,60
2018-08-16T10:27:24.979Z,65
2018-08-16T10:28:05.446Z,70
2018-08-16T10:28:45.885Z,65
2018-08-16T10:29:26.394Z,70
2018-08-16T11:07:51.980Z,70
2018-08-16T11:08:30.667Z,65
2018-08-16T11:09:11.298Z,65
2018-08-16T11:09:51.652Z,70
2018-08-16T11:10:32.014Z,70
2018-08-16T11:11:12.562Z,65
2018-08-16T11:11:53.001Z,65
2018-08-16T11:12:33.389Z,65
2018-08-16T11:13:13.891Z,70
2018-08-16T11:13:54.632Z,70
2018-08-16T11:14:37.704Z,70
2018-08-16T11:15:16.727Z,70
2018-08-16T11:15:57.603Z,75
2018-08-16T11:16:38.236Z,75
2018-08-16T11:17:18.553Z,75
2018-08-16T11:17:59.134Z,70
2018-08-16T11:18:39.713Z,75
2018-08-16T11:19:22.498Z,75
2018-08-16T11:20:01.727Z,75
2018-08-16T11:20:43.782Z,75
2018-08-16T11:21:25.317Z,75
2018-08-16T11:22:05.836Z,70
2018-08-16T11:22:46.626Z,70
2018-08-16T11:23:27.040Z,70
2018-08-16T11:24:07.607Z,75
2018-08-16T11:29:45.512Z,70
2018-08-16T11:30:38.513Z,70
2018-08-16T11:31:18.946Z,70
2018-08-16T11:31:59.383Z,70
2018-08-16T11:32:39.750Z,65
2018-08-16T11:33:20.231Z,70
2018-08-16T11:34:00.851Z,70
2018-08-16T11:34:41.378Z,70
2018-08-16T11:35:21.890Z,70
2018-08-16T11:36:02.498Z,70
2018-08-16T11:36:42.931Z,70
2018-08-16T11:37:23.440Z,70
2018-08-16T11:38:03.944Z,70
2018-08-16T11:38:44.438Z,65
2018-08-16T11:39:25.116Z,65
2018-08-16T11:40:05.584Z,65
2018-08-16T11:40:46.999Z,65
2018-08-16T11:41:27.235Z,70
2018-08-16T11:42:08.952Z,70
2018-08-16T11:42:49.516Z,75
2018-08-16T11:43:29.615Z,75
2018-08-16T11:44:10.397Z,70
2018-08-16T11:44:51.214Z,70
2018-08-16T11:45:31.684Z,65
2018-08-16T11:46:12.235Z,70
2018-08-16T11:46:52.949Z,70
2018-08-16T11:47:34.089Z,70
2018-08-16T11:48:14.985Z,70
2018-08-16T11:48:55.940Z,70
2018-08-16T11:49:36.302Z,70
2018-08-16T11:50:16.817Z,70
2018-08-16T11:50:57.455Z,70
2018-08-16T11:51:38.537Z,70
2018-08-16T11:52:18.625Z,70
2018-08-16T11:52:59.221Z,70
2018-08-16T11:53:39.759Z,65
2018-08-16T11:54:20.149Z,65
2018-08-16T11:55:01.015Z,60
2018-08-16T11:55:41.206Z,60
2018-08-16T11:56:21.686Z,65
2018-08-16T11:57:02.110Z,55
2018-08-16T11:57:42.994Z,60
2018-08-16T11:58:32.465Z,60
2018-08-16T11:59:12.323Z,60
2018-08-16T11:59:52.735Z,60
2018-08-16T12:00:33.132Z,60
2018-08-16T12:01:13.522Z,60
2018-08-16T12:01:54.027Z,55
2018-08-16T12:02:34.417Z,55
2018-08-16T12:03:14.859Z,60
2018-08-16T12:03:55.261Z,60
2018-08-16T12:04:35.700Z,60
2018-08-16T12:05:16.209Z,60
2018-08-16T12:05:56.731Z,60
2018-08-16T12:06:37.400Z,60
2018-08-16T12:07:17.797Z,65
2018-08-16T12:07:58.308Z,65
2018-08-16T12:08:38.874Z,70
2018-08-16T12:09:19.259Z,70
2018-08-16T12:09:59.753Z,65
2018-08-16T12:10:40.094Z,65
2018-08-16T12:11:20.562Z,65
2018-08-16T12:12:00.884Z,65
2018-08-16T12:12:41.386Z,70
2018-08-16T12:13:21.707Z,70
2018-08-16T12:14:02.197Z,70
2018-08-16T12:14:42.761Z,70
2018-08-16T12:15:23.116Z,70
2018-08-16T12:16:03.505Z,70
2018-08-16T12:16:44.096Z,70
2018-08-16T12:17:24.469Z,70
2018-08-16T12:18:04.961Z,70
2018-08-16T12:18:45.441Z,70
2018-08-16T12:19:26.082Z,70
2018-08-16T12:20:06.613Z,70
2018-08-16T12:20:47.120Z,70
2018-08-16T12:21:27.446Z,70
2018-08-16T12:22:08.266Z,65
2018-08-16T12:22:48.810Z,70
2018-08-16T12:23:29.209Z,70
2018-08-16T12:24:09.583Z,65
2018-08-16T12:24:50.059Z,65
2018-08-16T12:25:30.581Z,65
2018-08-16T12:26:11.078Z,65
2018-08-16T12:26:51.758Z,70
2018-08-16T12:27:32.243Z,70
2018-08-16T12:28:12.679Z,70
2018-08-16T12:28:53.171Z,65
2018-08-16T12:29:33.648Z,65
2018-08-16T12:30:14.236Z,65
2018-08-16T12:30:54.637Z,65
2018-08-16T12:31:35.109Z,65
2018-08-16T12:32:15.700Z,65
2018-08-16T12:32:56.141Z,60
2018-08-16T12:33:36.596Z,60
2018-08-16T12:34:17.037Z,60
2018-08-16T12:34:57.533Z,65
2018-08-16T12:35:38.171Z,60
2018-08-16T12:36:18.633Z,60
2018-08-16T12:36:59.066Z,60
2018-08-16T12:37:40.068Z,60
2018-08-16T12:38:23.563Z,65
2018-08-16T12:39:04.263Z,65
2018-08-16T12:39:44.712Z,65
2018-08-16T12:40:25.952Z,65
2018-08-16T12:43:21.481Z,65
2018-08-16T12:44:01.991Z,65
2018-08-16T12:44:42.462Z,65
2018-08-16T12:45:23.015Z,60
2018-08-16T12:46:06.571Z,60
2018-08-16T12:46:47.128Z,60
2018-08-16T12:47:28.238Z,60
2018-08-16T12:48:08.736Z,60
2018-08-16T12:48:49.197Z,60
2018-08-16T12:49:29.663Z,60
2018-08-16T12:50:10.102Z,60
2018-08-16T12:50:50.523Z,60
2018-08-16T12:51:30.992Z,65
2018-08-16T12:52:13.005Z,65
2018-08-16T12:52:53.630Z,65
2018-08-16T12:53:49.194Z,65
2018-08-16T12:56:31.745Z,65
2018-08-16T12:57:13.924Z,65
2018-08-16T12:57:54.112Z,55
2018-08-16T12:58:34.584Z,55
2018-08-16T12:59:15.061Z,55
2018-08-16T12:59:55.544Z,60
2018-08-16T13:00:36.207Z,60
2018-08-16T13:01:16.651Z,60
2018-08-16T13:01:57.322Z,60
2018-08-16T13:02:37.947Z,60
2018-08-16T13:03:19.614Z,60
2018-08-16T13:03:59.988Z,60
2018-08-16T13:04:40.412Z,55
2018-08-16T13:05:22.275Z,60
2018-08-16T13:06:03.170Z,60
2018-08-16T13:06:44.855Z,60
2018-08-16T13:10:14.434Z,60
2018-08-16T13:13:17.861Z,60
2018-08-16T13:13:58.339Z,60
2018-08-16T13:14:38.697Z,55
2018-08-16T13:15:19.365Z,55
2018-08-16T13:16:00.540Z,50
2018-08-16T13:16:41.487Z,60
2018-08-16T13:17:22.679Z,60
2018-08-16T13:18:03.289Z,55
2018-08-16T13:18:44.085Z,60
2018-08-16T13:19:24.937Z,55
2018-08-16T13:20:05.480Z,60
2018-08-16T13:20:46.842Z,60
2018-08-16T13:21:27.180Z,60
2018-08-16T13:22:08.119Z,60
2018-08-16T13:22:52.314Z,60
2018-08-16T13:23:35.370Z,60
2018-08-16T13:24:16.451Z,55
2018-08-16T13:24:56.888Z,55
2018-08-16T13:25:37.244Z,55
2018-08-16T13:26:18.402Z,60
2018-08-16T13:26:58.123Z,60
2018-08-16T13:27:38.623Z,60
2018-08-16T13:28:19.144Z,60
2018-08-16T13:28:59.665Z,60
2018-08-16T13:29:40.091Z,60
2018-08-16T13:30:20.629Z,55
2018-08-16T13:31:01.052Z,55
2018-08-16T13:31:41.567Z,55
2018-08-16T13:32:22.134Z,55
2018-08-16T13:33:03.874Z,55
2018-08-16T13:33:44.379Z,60
2018-08-16T13:34:24.834Z,55
2018-08-16T13:35:05.023Z,55
2018-08-16T13:35:45.571Z,60
2018-08-16T13:36:26.022Z,60
2018-08-16T13:37:06.678Z,60
2018-08-16T13:37:47.100Z,60
2018-08-16T13:38:27.559Z,60
2018-08-16T13:39:08.050Z,60
2018-08-16T13:39:48.707Z,60
2018-08-16T13:40:29.065Z,60
2018-08-16T13:41:09.500Z,55
2018-08-16T13:41:50.185Z,55
2018-08-16T13:42:30.661Z,60
2018-08-16T13:43:11.877Z,60
2018-08-16T13:43:51.929Z,65
2018-08-16T13:44:33.245Z,60
2018-08-16T13:45:21.138Z,65
2018-08-16T13:46:02.427Z,65
2018-08-16T13:46:43.134Z,65
2018-08-16T13:47:23.550Z,60
2018-08-16T13:48:04.112Z,65
2018-08-16T13:48:45.402Z,65
2018-08-16T13:49:25.415Z,60
2018-08-16T13:50:06.246Z,60
2018-08-16T13:50:47.483Z,60
2018-08-16T13:51:29.549Z,60
2018-08-16T13:52:10.035Z,60
2018-08-16T13:52:50.512Z,60
2018-08-16T13:53:31.298Z,60
2018-08-16T13:54:12.617Z,60
2018-08-16T13:54:52.634Z,60
2018-08-16T13:55:33.670Z,60
2018-08-16T13:56:15.007Z,60
2018-08-16T13:56:56.432Z,60
2018-08-16T13:57:36.317Z,60
2018-08-16T13:58:17.452Z,60
2018-08-16T13:58:57.841Z,60
2018-08-16T13:59:38.505Z,60
2018-08-16T14:00:19.093Z,60
2018-08-16T14:01:00.049Z,60
2018-08-16T14:01:40.864Z,60
2018-08-16T14:02:21.585Z,60
2018-08-16T14:03:02.083Z,60
2018-08-16T14:03:42.621Z,55
2018-08-16T14:04:23.110Z,55
2018-08-16T14:05:04.133Z,55
2018-08-16T14:05:44.890Z,55
2018-08-16T14:06:25.516Z,55
2018-08-16T14:07:06.043Z,55
2018-08-16T14:07:46.584Z,60
2018-08-16T14:08:27.171Z,60
2018-08-16T14:09:07.725Z,60
2018-08-16T14:09:48.308Z,60
2018-08-16T14:10:29.650Z,60
2018-08-16T14:15:16.602Z,55
2018-08-16T14:16:23.946Z,50
2018-08-16T14:17:04.727Z,50
2018-08-16T14:17:44.868Z,50
2018-08-16T14:18:26.731Z,55
2018-08-16T14:19:09.341Z,50
2018-08-16T14:19:50.167Z,50
2018-08-16T14:20:32.810Z,50
2018-08-16T14:21:13.771Z,45
2018-08-16T14:21:56.769Z,45
2018-08-16T14:22:37.842Z,50
2018-08-16T14:23:18.520Z,50
2018-08-16T14:23:59.018Z,50
2018-08-16T14:24:39.613Z,50
2018-08-16T14:25:20.785Z,50
2018-08-16T14:26:02.256Z,50
2018-08-16T14:26:42.446Z,50
2018-08-16T14:27:23.164Z,50
2018-08-16T14:28:04.206Z,50
2018-08-16T14:28:45.311Z,50
2018-08-16T14:29:26.707Z,50
2018-08-16T14:30:07.388Z,50
2018-08-16T14:30:47.367Z,50
2018-08-16T14:31:28.194Z,50
2018-08-16T14:32:09.765Z,50
2018-08-16T14:32:49.882Z,55
2018-08-16T14:33:30.581Z,50
2018-08-16T14:34:11.141Z,50
2018-08-16T14:34:51.786Z,50
2018-08-16T14:35:32.814Z,50
2018-08-16T14:36:13.841Z,50
2018-08-16T14:36:54.833Z,50
2018-08-16T14:37:36.382Z,50
2018-08-16T14:38:17.039Z,50
2018-08-16T14:38:57.613Z,50
2018-08-16T14:39:38.592Z,50
2018-08-16T14:40:18.784Z,50
2018-08-16T14:40:59.361Z,50
2018-08-16T14:41:39.854Z,50
2018-08-16T14:42:20.445Z,50
2018-08-16T14:43:01.180Z,50
2018-08-16T14:43:42.232Z,55
2018-08-16T14:44:22.480Z,50
2018-08-16T14:45:03.030Z,50
2018-08-16T14:45:43.393Z,50
2018-08-16T14:46:23.834Z,50
2018-08-16T14:47:04.325Z,50
2018-08-16T14:47:44.828Z,50
2018-08-16T14:48:25.296Z,50
2018-08-16T14:49:05.735Z,50
2018-08-16T14:49:49.111Z,50
2018-08-16T14:50:29.692Z,50
2018-08-16T14:51:11.774Z,50
2018-08-16T14:51:52.918Z,50
2018-08-16T14:52:33.182Z,50
2018-08-16T14:53:14.040Z,50
2018-08-16T14:53:54.520Z,45
2018-08-16T14:54:35.045Z,50
2018-08-16T14:55:15.487Z,50
2018-08-16T14:55:56.845Z,50
2018-08-16T14:56:36.584Z,50
2018-08-16T14:57:17.986Z,50
2018-08-16T14:57:57.637Z,50
2018-08-16T14:58:38.844Z,50
2018-08-16T14:59:20.978Z,50
2018-08-16T15:00:01.569Z,45
2018-08-16T15:00:42.943Z,45
2018-08-16T15:01:23.963Z,45
2018-08-16T15:02:04.740Z,50
2018-08-16T15:02:47.145Z,50
2018-08-16T15:03:27.100Z,50
2018-08-16T15:04:07.909Z,45
2018-08-16T15:04:48.041Z,45
2018-08-16T15:05:30.591Z,45
2018-08-16T15:06:11.038Z,45
2018-08-16T15:06:51.681Z,45
2018-08-16T15:07:33.697Z,45
2018-08-16T15:08:20.971Z,45
2018-08-16T15:09:01.500Z,45
2018-08-16T15:09:53.221Z,45
2018-08-16T15:10:36.417Z,45
2018-08-16T15:11:17.198Z,45
2018-08-16T15:11:58.716Z,45
2018-08-16T15:12:39.218Z,45
2018-08-16T15:13:19.714Z,45
2018-08-16T15:14:00.253Z,45
2018-08-16T15:14:41.414Z,45
2018-08-16T15:15:22.892Z,45
2018-08-16T15:16:04.149Z,45
2018-08-16T15:16:45.565Z,45
2018-08-16T15:17:26.231Z,45
2018-08-16T15:18:07.035Z,45
2018-08-16T15:18:47.455Z,45
2018-08-16T15:19:28.392Z,40
2018-08-16T15:20:08.571Z,45
2018-08-16T15:20:48.991Z,40
2018-08-16T15:21:29.397Z,40
2018-08-16T15:22:09.853Z,40
2018-08-16T15:22:51.320Z,40
2018-08-16T15:23:31.160Z,40
2018-08-16T15:24:11.596Z,40
2018-08-16T15:24:52.075Z,40
2018-08-16T15:25:32.387Z,45
2018-08-16T15:26:12.934Z,45
2018-08-16T15:26:53.367Z,45
2018-08-16T15:27:33.839Z,45
2018-08-16T15:28:14.298Z,40
2018-08-16T15:28:54.670Z,40
2018-08-16T15:29:35.109Z,40
2018-08-16T15:30:15.662Z,40
2018-08-16T15:30:56.246Z,40
2018-08-16T15:31:36.710Z,40
2018-08-16T15:32:17.200Z,40
2018-08-16T15:32:57.547Z,40
2018-08-16T15:33:38.210Z,40
2018-08-16T15:34:19.464Z,40
2018-08-16T15:35:00.760Z,40
2018-08-16T15:35:40.416Z,40
2018-08-16T15:36:20.895Z,40
2018-08-16T15:37:01.547Z,35
2018-08-16T15:37:42.018Z,35
2018-08-16T15:38:22.387Z,35
2018-08-16T15:39:02.983Z,35
2018-08-16T15:39:43.308Z,35
2018-08-16T15:40:23.751Z,35
2018-08-16T15:41:04.381Z,35
2018-08-16T15:41:44.803Z,35
2018-08-16T15:42:25.290Z,35
2018-08-16T15:43:05.771Z,35
2018-08-16T15:43:46.129Z,40
2018-08-16T15:44:26.641Z,35
2018-08-16T15:45:07.035Z,35
2018-08-16T15:45:47.492Z,35
2018-08-16T15:46:28.135Z,40
2018-08-16T15:47:09.277Z,40
2018-08-16T15:47:50.235Z,40
2018-08-16T15:48:31.470Z,40
2018-08-16T15:49:12.196Z,40
2018-08-16T15:49:53.751Z,40
2018-08-16T15:50:33.921Z,40
2018-08-16T15:51:14.647Z,40
2018-08-16T15:51:55.176Z,40
2018-08-16T15:52:35.493Z,40
2018-08-16T15:53:15.997Z,40
2018-08-16T15:53:56.397Z,40
2018-08-16T15:54:36.879Z,40
2018-08-16T15:55:18.189Z,40
2018-08-16T15:55:58.849Z,40
2018-08-16T15:56:39.410Z,40
2018-08-16T15:57:20.187Z,40
2018-08-16T15:58:00.643Z,40
2018-08-16T15:58:41.200Z,40
2018-08-16T15:59:21.800Z,40
2018-08-16T16:00:02.352Z,40
2018-08-16T16:00:42.672Z,40
2018-08-16T16:01:23.196Z,40
2018-08-16T16:02:03.616Z,40
2018-08-16T16:02:44.021Z,40
2018-08-16T16:03:24.465Z,40
2018-08-16T16:04:04.906Z,40
2018-08-16T16:04:45.317Z,40
2018-08-16T16:05:25.702Z,35
2018-08-16T16:06:06.106Z,35
2018-08-16T16:06:46.628Z,35
2018-08-16T16:07:26.997Z,35
2018-08-16T16:08:07.494Z,35
2018-08-16T16:08:47.852Z,35
2018-08-16T16:09:28.258Z,35
2018-08-16T16:10:08.741Z,35
2018-08-16T16:10:49.142Z,35
2018-08-16T16:11:29.650Z,35
2018-08-16T16:12:10.169Z,35
2018-08-16T16:12:50.573Z,35
2018-08-16T16:13:32.024Z,35
2018-08-16T16:14:12.373Z,35
2018-08-16T16:14:52.813Z,35
2018-08-16T16:15:33.248Z,35
2018-08-16T16:16:13.710Z,35
2018-08-16T16:16:55.293Z,30
2018-08-16T16:17:35.759Z,30
2018-08-16T16:18:15.852Z,30
2018-08-16T16:18:57.299Z,30
2018-08-16T16:19:37.205Z,30
2018-08-16T16:20:17.747Z,30
2018-08-16T16:20:58.249Z,30
2018-08-16T16:21:38.909Z,30
2018-08-16T16:22:19.303Z,30
2018-08-16T16:22:59.723Z,30
2018-08-16T16:23:40.225Z,30
2018-08-16T16:24:20.638Z,30
2018-08-16T16:25:01.060Z,30
2018-08-16T16:25:41.809Z,30
2018-08-16T16:26:22.412Z,30
2018-08-16T16:27:03.056Z,30
2018-08-16T16:27:43.319Z,30
2018-08-16T16:28:24.059Z,30
2018-08-16T16:29:05.314Z,30
2018-08-16T16:29:45.521Z,30
2018-08-16T16:30:25.871Z,30
2018-08-16T16:31:10.545Z,30
2018-08-16T16:31:50.920Z,30
2018-08-16T17:08:37.794Z,25
2018-08-16T17:09:18.192Z,25
2018-08-16T17:09:58.655Z,25
2018-08-16T17:10:39.260Z,20
2018-08-16T17:11:20.787Z,25
2018-08-16T17:12:01.891Z,25
2018-08-16T17:12:42.275Z,25
2018-08-16T17:13:22.853Z,25
2018-08-16T17:14:03.378Z,25
2018-08-16T17:14:44.257Z,20
2018-08-16T17:15:25.207Z,20
2018-08-16T17:16:05.540Z,20
2018-08-16T17:16:46.026Z,20
2018-08-16T17:17:26.480Z,20
2018-08-16T17:18:08.280Z,20
2018-08-16T17:18:48.680Z,20
2018-08-16T17:19:31.130Z,20
2018-08-16T17:20:11.503Z,20
2018-08-16T17:20:51.901Z,20
2018-08-16T17:21:32.364Z,20
2018-08-16T17:22:12.805Z,20
2018-08-16T17:26:19.020Z,20
2018-08-16T17:27:08.881Z,20
2018-08-16T17:27:48.576Z,20
2018-08-16T17:28:29.006Z,20
2018-08-16T17:29:09.398Z,20
2018-08-16T17:29:49.841Z,20
2018-08-16T17:30:30.174Z,20
2018-08-16T17:31:10.563Z,20
2018-08-16T17:31:50.985Z,15
2018-08-16T17:32:31.419Z,15
2018-08-16T17:33:11.758Z,15
2018-08-16T17:33:52.190Z,15
2018-08-16T17:34:32.584Z,15
2018-08-16T17:35:12.946Z,15
2018-08-16T17:35:53.408Z,15
2018-08-16T17:36:33.789Z,15
2018-08-16T17:37:14.254Z,15
2018-08-16T17:37:54.744Z,15
2018-08-16T17:38:35.176Z,15
2018-08-16T17:39:15.532Z,15
2018-08-16T17:39:56.015Z,15
2018-08-16T17:40:36.365Z,15
2018-08-16T17:41:16.789Z,15
2018-08-16T17:41:57.181Z,15
2018-08-16T17:42:37.608Z,15
2018-08-16T17:43:18.002Z,15
2018-08-16T17:43:58.396Z,15
2018-08-16T17:44:38.801Z,15
2018-08-16T17:45:19.207Z,10
2018-08-16T17:45:59.548Z,10
2018-08-16T17:46:40.091Z,10
2018-08-16T17:47:20.547Z,10
2018-08-16T17:48:00.968Z,10
2018-08-16T17:48:41.409Z,10
2018-08-16T17:49:21.830Z,10
2018-08-16T17:50:02.231Z,10
2018-08-16T17:50:42.606Z,10
2018-08-16T17:51:23.143Z,10
2018-08-16T17:52:03.575Z,10
2018-08-16T17:52:43.971Z,10
2018-08-16T17:53:24.318Z,10
2018-08-16T17:54:04.731Z,10
2018-08-16T17:54:45.427Z,10
2018-08-16T17:55:25.869Z,10
2018-08-16T17:56:06.201Z,10
2018-08-16T17:56:46.728Z,10
2018-08-16T17:57:27.048Z,10